Time;durP1;ratioP1;P1;durP2;ratioP2;P2;SDS_P1;SDS_P2;PMS_P1;PMS_P2;Temp;Humidity;BMP_temperature;BMP_pressure;BME280_temperature;BME280_humidity;BME280_pressure;Samples;Min_cycle;Max_cycle;Signal;HPM_P1;HPM_P2
2021/08/30 00:03:29;;;;;;;12.07;6.58;;;;;;;13.67;93.74;98574.81;3988361;87;21052;-84
2021/08/30 00:09:31;;;;;;;12.13;6.95;;;;;;;13.69;94.35;98571.04;3993000;88;21124;-84
2021/08/30 00:15:32;;;;;;;13.40;7.50;;;;;;;13.77;94.62;98569.22;3991992;88;21188;-84
2021/08/30 00:21:33;;;;;;;13.95;9.18;;;;;;;13.80;94.71;98568.98;3987341;88;21056;-83
2021/08/30 00:27:35;;;;;;;11.65;8.08;;;;;;;13.82;94.85;98568.78;3991116;88;21070;-82
2021/08/30 00:33:36;;;;;;;12.25;8.63;;;;;;;13.84;94.96;98556.75;3991543;88;21080;-83
2021/08/30 00:39:37;;;;;;;10.38;7.65;;;;;;;13.80;95.04;98560.14;3988990;88;21072;-83
2021/08/30 00:45:39;;;;;;;8.90;6.78;;;;;;;13.77;95.14;98560.17;3989420;88;21103;-84
2021/08/30 00:51:40;;;;;;;12.82;7.53;;;;;;;13.75;95.10;98564.70;3992579;88;21060;-84
2021/08/30 00:57:41;;;;;;;9.55;6.42;;;;;;;13.72;95.15;98557.84;4013635;86;21091;-84
2021/08/30 01:03:43;;;;;;;10.85;6.40;;;;;;;13.65;95.17;98563.42;4013895;87;21548;-84
2021/08/30 01:10:10;;;;;;;7.87;6.60;;;;;;;13.61;95.04;98562.65;4036881;87;21063;-84
2021/08/30 01:16:14;;;;;;;8.98;6.90;;;;;;;13.53;95.07;98567.43;4032657;87;21093;-83
2021/08/30 01:22:17;;;;;;;8.00;6.72;;;;;;;13.36;95.32;98577.96;4034155;87;21596;-84
2021/08/30 01:28:21;;;;;;;11.05;6.42;;;;;;;13.36;96.01;98577.20;4028609;87;21202;-85
2021/08/30 01:34:28;;;;;;;12.25;7.62;;;;;;;13.42;96.07;98580.47;4031783;87;20983;-84
2021/08/30 01:40:31;;;;;;;17.17;7.50;;;;;;;13.43;96.10;98579.89;4034170;87;21542;-84
2021/08/30 01:46:34;;;;;;;11.63;7.58;;;;;;;13.45;96.26;98578.28;4014852;87;21085;-83
2021/08/30 01:52:39;;;;;;;10.30;7.20;;;;;;;13.46;96.32;98578.49;4026112;87;21596;-84
2021/08/30 02:05:02;;;;;;;10.10;7.47;;;;;;;13.34;96.38;98567.19;3973379;88;21195;-84
2021/08/30 02:11:10;;;;;;;10.58;7.10;;;;;;;13.30;96.70;98567.79;3979532;88;21032;-84
2021/08/30 02:17:18;;;;;;;12.03;7.60;;;;;;;13.33;96.81;98571.11;3975900;88;21585;-84
2021/08/30 02:23:25;;;;;;;10.08;7.72;;;;;;;13.31;96.87;98569.38;3937688;89;21076;-86
2021/08/30 02:29:35;;;;;;;13.05;7.35;;;;;;;13.33;96.93;98573.27;3934839;89;21143;-85
2021/08/30 02:35:40;;;;;;;12.50;7.80;;;;;;;13.29;96.99;98563.48;3932219;89;21112;-85
2021/08/30 02:41:46;;;;;;;13.25;9.05;;;;;;;13.26;97.06;98560.17;3940673;89;22334;-86
2021/08/30 02:47:53;;;;;;;10.60;7.67;;;;;;;13.22;97.20;98555.27;3941905;89;21148;-85
2021/08/30 02:53:58;;;;;;;11.68;8.80;;;;;;;13.20;97.27;98551.55;3939274;89;21096;-86
2021/08/30 03:00:00;;;;;;;16.60;9.10;;;;;;;13.18;97.26;98547.66;3946307;89;21614;-85
2021/08/30 03:06:04;;;;;;;15.48;9.58;;;;;;;13.11;97.33;98542.22;3948882;89;21651;-85
2021/08/30 03:12:11;;;;;;;15.78;9.50;;;;;;;13.13;97.59;98548.08;3952325;89;21120;-85
2021/08/30 03:18:13;;;;;;;;;;;;;;;13.16;97.67;98555.52;3950182;89;21603;-85
2021/08/30 03:24:19;;;;;;;13.32;9.68;;;;;;;13.18;98.10;98549.03;3951126;89;20144;-85
2021/08/30 03:30:28;;;;;;;13.90;9.03;;;;;;;13.14;97.85;98549.05;3952764;87;21051;-85
2021/08/30 03:36:37;;;;;;;16.57;9.90;;;;;;;13.15;97.91;98541.59;3948217;89;21076;-85
2021/08/30 03:42:41;;;;;;;15.38;9.00;;;;;;;13.13;98.00;98542.00;3951430;89;21056;-86
2021/08/30 03:48:43;;;;;;;14.78;9.85;;;;;;;13.13;98.10;98539.83;3950554;89;21138;-87
2021/08/30 03:54:44;;;;;;;16.12;9.43;;;;;;;13.16;98.08;98549.44;3944770;89;21563;-85
2021/08/30 04:00:46;;;;;;;13.88;9.90;;;;;;;13.13;98.14;98548.08;3932117;89;21133;-85
2021/08/30 04:06:48;;;;;;;15.18;10.10;;;;;;;13.13;98.22;98548.87;3938616;89;21080;-84
2021/08/30 04:12:49;;;;;;;17.15;11.10;;;;;;;13.14;98.29;98555.92;3921772;89;21609;-84
2021/08/30 04:18:51;;;;;;;15.53;10.50;;;;;;;13.16;98.28;98554.93;3920323;89;21653;-84
2021/08/30 04:24:52;;;;;;;15.40;10.53;;;;;;;13.12;98.25;98550.64;3921552;89;21072;-84
2021/08/30 04:30:53;;;;;;;15.48;10.63;;;;;;;13.08;98.35;98550.66;3923149;89;21303;-84
2021/08/30 04:36:54;;;;;;;19.48;12.10;;;;;;;13.08;98.52;98553.41;3935789;89;21771;-84
2021/08/30 04:42:56;;;;;;;17.17;11.75;;;;;;;13.12;98.70;98547.31;3923961;89;21073;-84
2021/08/30 04:48:57;;;;;;;22.93;11.30;;;;;;;13.14;98.74;98553.17;3924120;88;21116;-83
2021/08/30 04:54:59;;;;;;;16.07;10.45;;;;;;;13.19;98.89;98556.08;3935022;89;21072;-83
2021/08/30 05:01:00;;;;;;;12.93;10.75;;;;;;;13.25;98.97;98555.88;3939406;89;21651;-84
2021/08/30 05:07:02;;;;;;;12.68;10.40;;;;;;;13.33;98.98;98554.03;3939628;89;21627;-84
2021/08/30 05:13:04;;;;;;;18.45;11.70;;;;;;;13.34;98.97;98549.33;3938714;89;21068;-83
2021/08/30 05:19:05;;;;;;;13.80;10.53;;;;;;;13.34;99.00;98550.08;3939481;89;21125;-83
2021/08/30 05:25:07;;;;;;;16.50;12.03;;;;;;;13.38;99.31;98553.61;3938939;89;21080;-84
2021/08/30 05:31:08;;;;;;;16.12;11.60;;;;;;;13.44;99.46;98545.11;3870267;90;21094;-82
2021/08/30 05:37:09;;;;;;;16.17;12.00;;;;;;;13.51;99.62;98551.95;3881637;90;22041;-83
2021/08/30 05:43:10;;;;;;;13.75;10.50;;;;;;;13.60;99.54;98555.02;3883422;89;21713;-83
2021/08/30 05:49:12;;;;;;;10.95;9.80;;;;;;;13.71;99.47;98550.20;3939254;89;21084;-84
2021/08/30 05:55:13;;;;;;;12.28;10.20;;;;;;;13.77;99.34;98538.95;3943666;89;21095;-83
2021/08/30 06:01:15;;;;;;;13.68;10.50;;;;;;;13.81;99.35;98536.18;3937208;89;22116;-83
2021/08/30 06:07:16;;;;;;;11.73;9.53;;;;;;;13.83;99.25;98537.32;3806367;92;21111;-83
2021/08/30 06:13:20;;;;;;;13.32;10.15;;;;;;;13.84;99.29;98540.86;3876951;90;21045;-84
2021/08/30 06:19:21;;;;;;;12.25;9.80;;;;;;;13.83;99.26;98543.41;3879058;89;21061;-85
2021/08/30 06:25:24;;;;;;;21.62;13.25;;;;;;;13.78;99.22;98536.38;3873881;89;21110;-86
2021/08/30 06:31:46;;;;;;;19.65;14.40;;;;;;;13.78;99.36;98535.62;3870792;90;21486;-86
2021/08/30 06:38:05;;;;;;;18.07;11.38;;;;;;;13.63;99.18;98532.20;3939656;89;21123;-85
2021/08/30 06:44:27;;;;;;;15.65;10.78;;;;;;;13.60;99.60;98522.02;3936654;89;21197;-85
2021/08/30 06:50:31;;;;;;;12.90;10.05;;;;;;;13.58;99.62;98522.21;3968613;86;26010;-85
2021/08/30 06:56:33;;;;;;;11.03;8.18;;;;;;;13.54;99.81;98519.52;4040702;86;21535;-86
2021/08/30 07:02:35;;;;;;;8.35;6.90;;;;;;;13.50;99.67;98519.36;4006326;86;21060;-86
2021/08/30 07:08:37;;;;;;;9.68;8.10;;;;;;;13.42;99.43;98509.60;3998100;88;21120;-85
2021/08/30 07:14:44;;;;;;;10.18;8.60;;;;;;;13.41;99.65;98512.14;3997531;88;21021;-85
2021/08/30 07:20:55;;;;;;;9.88;7.97;;;;;;;13.40;99.84;98510.59;4008362;86;21158;-87
2021/08/30 07:26:56;;;;;;;11.65;8.75;;;;;;;13.37;99.85;98507.28;4004422;85;10000223;-87
2021/08/30 07:33:13;;;;;;;12.23;9.28;;;;;;;13.38;100.00;98510.20;4068163;86;21520;-87
2021/08/30 07:46:42;;;;;;;10.50;8.80;;;;;;;13.32;100.00;98501.63;4122056;85;21563;-86
2021/08/30 07:52:43;;;;;;;12.23;9.00;;;;;;;13.21;100.00;98511.12;4128539;85;21066;-85
2021/08/30 07:58:50;;;;;;;11.03;9.50;;;;;;;13.16;100.00;98519.78;4140680;85;21342;-86
2021/08/30 08:04:51;;;;;;;11.93;9.25;;;;;;;13.13;100.00;98520.59;4131225;85;21068;-86
2021/08/30 08:10:59;;;;;;;13.43;9.28;;;;;;;13.11;100.00;98511.99;4133174;85;20999;-87
2021/08/30 08:17:00;;;;;;;10.88;9.05;;;;;;;13.17;100.00;98524.12;4111691;85;21565;-87
2021/08/30 08:23:07;;;;;;;12.78;10.48;;;;;;;13.20;100.00;98519.19;4139973;85;21063;-86
2021/08/30 08:29:09;;;;;;;13.05;10.93;;;;;;;13.20;100.00;98530.94;4147771;85;21026;-86
2021/08/30 08:35:11;;;;;;;11.48;10.10;;;;;;;13.21;100.00;98529.78;4122097;85;21086;-86
2021/08/30 08:41:39;;;;;;;11.33;9.98;;;;;;;13.24;100.00;98533.09;4094932;86;21236;-86
2021/08/30 08:54:23;;;;;;;14.10;10.48;;;;;;;13.25;100.00;98537.39;4101682;86;21021;-86
2021/08/30 09:00:36;;;;;;;21.87;12.28;;;;;;;13.22;100.00;98536.03;4071662;86;21090;-86
2021/08/30 09:06:45;;;;;;;13.80;11.83;;;;;;;13.27;100.00;98541.11;4086487;86;21026;-86
2021/08/30 09:13:08;;;;;;;13.08;11.20;;;;;;;13.30;100.00;98542.47;4098959;86;21134;-86
2021/08/30 09:19:11;;;;;;;13.55;11.28;;;;;;;13.30;100.00;98541.09;4078832;86;21971;-86
2021/08/30 09:25:26;;;;;;;12.05;10.75;;;;;;;13.30;100.00;98539.72;3816705;89;10001180;-87
2021/08/30 09:32:03;;;;;;;12.25;9.50;;;;;;;13.40;100.00;98543.00;3986802;88;21064;-86
2021/08/30 09:38:20;;;;;;;9.30;8.13;;;;;;;13.50;100.00;98542.12;3889630;90;22104;-86
2021/08/30 09:44:43;;;;;;;7.55;6.80;;;;;;;13.54;100.00;98536.59;4086526;86;21620;-86
2021/08/30 09:51:04;;;;;;;9.95;6.78;;;;;;;13.55;100.00;98548.56;4059254;86;21011;-86
2021/08/30 10:04:07;;;;;;;6.25;5.50;;;;;;;13.58;100.00;98550.50;4111746;86;21053;-86
2021/08/30 10:10:15;;;;;;;10.90;6.80;;;;;;;13.50;100.00;98554.48;4092595;86;21053;-86
2021/08/30 10:29:43;;;;;;;9.85;6.53;;;;;;;13.59;100.00;98559.55;4090928;85;21887;-86
2021/08/30 10:35:45;;;;;;;7.62;6.60;;;;;;;13.66;100.00;98556.14;4091910;86;21113;-86
2021/08/30 10:41:49;;;;;;;7.85;6.28;;;;;;;13.70;100.00;98558.87;4087162;86;21068;-87
2021/08/30 10:47:58;;;;;;;7.50;6.12;;;;;;;13.71;100.00;98565.92;4093785;86;21097;-86
2021/08/30 10:54:13;;;;;;;7.65;6.15;;;;;;;13.75;100.00;98574.33;4099293;86;21235;-87
2021/08/30 11:00:15;;;;;;;8.58;6.55;;;;;;;13.79;100.00;98579.22;4102768;86;21379;-87
2021/08/30 11:06:16;;;;;;;6.95;6.25;;;;;;;13.78;100.00;98585.13;4097271;85;21014;-87
2021/08/30 11:12:18;;;;;;;9.18;7.40;;;;;;;13.77;100.00;98594.55;4081729;86;21066;-87
2021/08/30 11:18:19;;;;;;;9.28;7.72;;;;;;;13.78;100.00;98587.27;4057240;85;21094;-87
2021/08/30 11:24:36;;;;;;;9.80;7.92;;;;;;;13.84;100.00;98588.39;3964449;86;10000179;-87
2021/08/30 11:30:37;;;;;;;7.55;6.67;;;;;;;13.88;100.00;98598.00;4077040;86;21058;-85
2021/08/30 11:36:47;;;;;;;10.15;7.35;;;;;;;13.89;100.00;98595.45;4078760;86;21078;-86
2021/08/30 11:42:48;;;;;;;9.70;8.10;;;;;;;13.87;100.00;98602.74;4066778;86;21010;-86
2021/08/30 11:48:58;;;;;;;10.03;7.87;;;;;;;13.87;100.00;98604.12;4050399;86;20991;-86
2021/08/30 11:55:17;;;;;;;10.35;7.50;;;;;;;13.85;100.00;98602.36;4088031;86;21657;-86
2021/08/30 12:01:20;;;;;;;9.20;7.62;;;;;;;13.83;100.00;98597.05;4062364;84;21594;-86
2021/08/30 12:07:22;;;;;;;8.63;7.70;;;;;;;13.82;100.00;98601.80;4078782;86;21077;-86
2021/08/30 12:19:28;;;;;;;10.85;9.00;;;;;;;13.73;100.00;98602.83;4075577;86;21014;-85
2021/08/30 12:25:36;;;;;;;22.90;11.13;;;;;;;13.67;100.00;98574.20;3974806;86;10000134;-85
2021/08/30 12:31:37;;;;;;;17.10;11.78;;;;;;;13.67;100.00;98574.20;4081040;86;21565;-86
2021/08/30 12:37:39;;;;;;;16.73;12.10;;;;;;;13.83;100.00;98596.47;4078253;85;20983;-85
2021/08/30 12:43:45;;;;;;;18.67;12.47;;;;;;;13.86;100.00;98594.87;4074303;86;21706;-86
2021/08/30 12:49:43;;;;;;;21.95;12.55;;;;;;;13.92;100.00;98587.15;4073743;86;21111;-85
2021/08/30 12:55:52;;;;;;;18.75;12.03;;;;;;;13.95;100.00;98585.58;3987106;87;21838;-85
2021/08/30 13:02:00;;;;;;;15.93;11.57;;;;;;;13.98;100.00;98586.13;3955166;85;21090;-86
2021/08/30 13:08:02;;;;;;;12.55;10.28;;;;;;;14.01;100.00;98582.56;4082851;86;21049;-86
2021/08/30 13:14:04;;;;;;;12.75;11.35;;;;;;;13.97;100.00;98575.71;3984895;87;21730;-86
2021/08/30 13:20:08;;;;;;;13.93;11.00;;;;;;;13.90;100.00;98590.92;4081369;85;21086;-86
2021/08/30 13:26:09;;;;;;;13.62;11.33;;;;;;;13.88;100.00;98581.49;4080018;85;21065;-85
2021/08/30 13:32:11;;;;;;;16.17;11.85;;;;;;;13.92;100.00;98594.03;3980377;87;21067;-86
2021/08/30 13:38:12;;;;;;;15.53;11.00;;;;;;;14.05;100.00;98595.10;3957446;88;21511;-86
2021/08/30 13:44:14;;;;;;;14.18;10.38;;;;;;;14.17;100.00;98605.59;3955255;88;21156;-86
2021/08/30 13:50:15;;;;;;;11.65;10.35;;;;;;;14.26;100.00;98609.88;3965811;88;21088;-85
2021/08/30 13:56:17;;;;;;;14.70;9.63;;;;;;;14.29;100.00;98608.48;4083785;86;21208;-86
2021/08/30 14:02:18;;;;;;;12.13;7.85;;;;;;;14.34;100.00;98615.51;4083544;85;21062;-86
2021/08/30 14:08:20;;;;;;;9.83;7.78;;;;;;;14.35;100.00;98624.73;3990530;87;21030;-86
2021/08/30 14:14:21;;;;;;;10.72;8.00;;;;;;;14.29;100.00;98609.85;3948054;88;21499;-85
2021/08/30 14:20:23;;;;;;;10.90;8.33;;;;;;;14.31;100.00;98618.50;3948895;89;21039;-85
2021/08/30 14:26:24;;;;;;;10.80;8.18;;;;;;;14.33;100.00;98618.84;3844339;89;10000053;-85
2021/08/30 14:32:26;;;;;;;9.48;8.33;;;;;;;14.39;100.00;98626.08;4088397;86;21151;-85
2021/08/30 14:38:27;;;;;;;10.38;8.28;;;;;;;14.44;100.00;98620.90;4097177;84;21034;-84
2021/08/30 14:44:29;;;;;;;13.72;10.78;;;;;;;14.51;100.00;98626.34;4095220;86;21061;-85
2021/08/30 14:50:31;;;;;;;12.60;9.18;;;;;;;14.50;100.00;98635.78;4102052;85;21550;-86
2021/08/30 14:56:32;;;;;;;11.80;8.33;;;;;;;14.41;100.00;98644.37;4086984;86;21577;-86
2021/08/30 15:02:36;;;;;;;10.55;8.10;;;;;;;14.44;100.00;98640.17;4097846;84;21126;-85
2021/08/30 15:08:46;;;;;;;14.33;7.87;;;;;;;14.52;100.00;98629.89;4096071;86;21074;-85
2021/08/30 15:14:47;;;;;;;12.07;8.90;;;;;;;14.57;100.00;98634.94;4085259;85;21054;-85
2021/08/30 15:20:49;;;;;;;10.05;8.68;;;;;;;14.63;100.00;98637.42;4080787;85;21017;-85
2021/08/30 15:26:57;;;;;;;13.83;9.58;;;;;;;14.58;100.00;98637.27;3962382;85;9999920;-84
2021/08/30 15:32:58;;;;;;;11.28;9.10;;;;;;;14.53;100.00;98640.50;4079361;86;21059;-85
2021/08/30 15:39:00;;;;;;;15.43;10.28;;;;;;;14.65;100.00;98630.33;4085366;85;21039;-85
2021/08/30 15:45:02;;;;;;;17.55;11.08;;;;;;;14.71;100.00;98628.69;4083170;86;22018;-84
2021/08/30 15:51:03;;;;;;;12.50;9.85;;;;;;;14.70;100.00;98619.45;4081612;86;21644;-85
2021/08/30 15:57:05;;;;;;;15.48;10.30;;;;;;;14.72;100.00;98625.34;4077452;86;21535;-84
2021/08/30 16:03:06;;;;;;;12.88;9.28;;;;;;;14.69;100.00;98623.41;4080170;85;21001;-84
2021/08/30 16:09:09;;;;;;;15.43;9.50;;;;;;;14.71;100.00;98625.92;4084551;85;21674;-85
2021/08/30 16:15:11;;;;;;;10.48;7.65;;;;;;;14.63;100.00;98626.41;4112843;86;20994;-84
2021/08/30 16:21:12;;;;;;;10.93;7.65;;;;;;;14.59;100.00;98629.22;4091212;86;21049;-85
2021/08/30 16:27:14;;;;;;;11.10;7.70;;;;;;;14.54;100.00;98625.53;4100438;86;21025;-84
2021/08/30 16:33:15;;;;;;;13.00;8.38;;;;;;;14.55;100.00;98628.45;4083203;86;21070;-85
2021/08/30 16:39:17;;;;;;;11.80;7.60;;;;;;;14.52;100.00;98630.66;4091460;86;21086;-84
2021/08/30 16:45:18;;;;;;;13.35;8.78;;;;;;;14.48;100.00;98630.51;4102929;86;21025;-85
2021/08/30 16:51:19;;;;;;;13.13;8.98;;;;;;;14.44;100.00;98633.30;4096430;84;21069;-84
2021/08/30 16:57:21;;;;;;;12.98;9.60;;;;;;;14.41;100.00;98636.86;3977750;86;9999780;-84
2021/08/30 17:03:22;;;;;;;10.25;8.10;;;;;;;14.35;100.00;98631.62;4000387;87;21247;-84
2021/08/30 17:09:27;;;;;;;13.93;9.15;;;;;;;14.28;100.00;98627.57;3915402;90;21048;-83
2021/08/30 17:15:35;;;;;;;12.00;8.03;;;;;;;14.28;100.00;98626.20;4015354;87;21593;-85
2021/08/30 17:21:32;;;;;;;15.20;9.03;;;;;;;14.23;100.00;98632.87;4023637;86;21119;-84
2021/08/30 17:27:33;;;;;;;17.32;9.90;;;;;;;14.23;100.00;98624.61;4030052;86;21070;-84
2021/08/30 17:33:35;;;;;;;16.15;10.18;;;;;;;14.20;100.00;98621.91;4020561;87;21938;-84
2021/08/30 17:39:36;;;;;;;21.30;11.65;;;;;;;14.22;100.00;98627.77;4012675;86;21064;-83
2021/08/30 17:45:38;;;;;;;20.85;13.58;;;;;;;14.18;100.00;98623.70;4020388;87;21588;-83
2021/08/30 17:51:40;;;;;;;19.37;13.98;;;;;;;14.14;100.00;98638.07;4022208;87;21100;-83
2021/08/30 17:57:41;;;;;;;19.50;13.62;;;;;;;14.08;100.00;98637.53;3897288;87;10000261;-84
2021/08/30 18:03:43;;;;;;;16.30;11.63;;;;;;;14.08;100.00;98642.45;4029233;85;21446;-83
2021/08/30 18:09:44;;;;;;;16.55;11.15;;;;;;;14.08;100.00;98643.03;4016943;87;21727;-83
2021/08/30 18:15:45;;;;;;;16.32;12.15;;;;;;;13.96;100.00;98648.45;4012876;87;21012;-84
2021/08/30 18:21:46;;;;;;;19.23;14.05;;;;;;;13.88;100.00;98648.91;4035861;86;21095;-83
2021/08/30 18:27:48;;;;;;;19.12;13.90;;;;;;;13.81;100.00;98649.73;4023433;86;21956;-84
2021/08/30 18:33:51;;;;;;;18.10;13.40;;;;;;;13.79;100.00;98653.50;4023246;87;21483;-85
2021/08/30 18:39:53;;;;;;;18.82;13.95;;;;;;;13.83;100.00;98663.09;3997057;87;21108;-84
2021/08/30 18:45:55;;;;;;;20.72;14.38;;;;;;;13.85;100.00;98657.97;4026850;87;21036;-84
2021/08/30 18:51:56;;;;;;;20.15;15.30;;;;;;;13.90;100.00;98653.42;4020180;87;21075;-85
2021/08/30 18:57:58;;;;;;;16.95;13.62;;;;;;;13.84;100.00;98645.41;3911613;86;9999822;-84
2021/08/30 19:03:59;;;;;;;20.62;13.60;;;;;;;13.78;100.00;98648.41;3954939;88;21155;-84
2021/08/30 19:10:03;;;;;;;15.98;12.45;;;;;;;13.77;100.00;98642.11;4071894;85;21613;-85
2021/08/30 19:16:08;;;;;;;16.32;13.28;;;;;;;13.83;100.00;98637.73;4088728;85;21949;-85
2021/08/30 19:22:08;;;;;;;15.88;12.40;;;;;;;13.80;100.00;98634.42;4082336;85;21073;-84
2021/08/30 19:28:10;;;;;;;17.37;11.60;;;;;;;13.74;100.00;98629.17;4091023;85;21039;-85
2021/08/30 19:34:11;;;;;;;18.02;11.97;;;;;;;13.76;100.00;98627.39;4076243;85;21549;-85
2021/08/30 19:40:13;;;;;;;15.63;11.73;;;;;;;13.75;100.00;98629.34;4063292;86;22129;-84
2021/08/30 19:46:15;;;;;;;13.60;10.68;;;;;;;13.70;100.00;98622.89;4075408;86;21102;-85
2021/08/30 19:52:17;;;;;;;14.98;11.12;;;;;;;13.64;100.00;98623.75;4078519;85;21028;-84
2021/08/30 19:58:22;;;;;;;13.72;9.53;;;;;;;13.58;100.00;98626.13;4073252;85;21040;-85
2021/08/30 20:04:23;;;;;;;14.13;9.58;;;;;;;13.49;100.00;98619.52;4071483;86;21082;-85
2021/08/30 20:10:26;;;;;;;14.65;9.33;;;;;;;13.49;100.00;98618.14;4087174;85;21102;-84
2021/08/30 20:16:32;;;;;;;11.57;8.63;;;;;;;13.48;100.00;98610.50;4075798;86;21075;-85
2021/08/30 20:22:34;;;;;;;16.65;9.28;;;;;;;13.43;100.00;98607.38;4066314;86;21495;-86
2021/08/30 20:28:41;;;;;;;14.35;10.32;;;;;;;13.44;100.00;98593.81;4058640;86;21042;-84
2021/08/30 20:34:45;;;;;;;12.45;9.40;;;;;;;13.40;100.00;98593.06;4076698;85;21490;-84
2021/08/30 20:40:51;;;;;;;12.60;8.75;;;;;;;13.37;100.00;98588.38;4059742;86;21098;-85
2021/08/30 20:46:52;;;;;;;15.10;9.50;;;;;;;13.37;100.00;98593.30;4070357;86;21091;-85
2021/08/30 20:52:58;;;;;;;12.15;9.35;;;;;;;13.37;100.00;98591.92;4081201;86;21110;-85
2021/08/30 20:58:59;;;;;;;15.43;8.88;;;;;;;13.34;100.00;98587.20;4073740;86;21531;-84
2021/08/30 21:05:00;;;;;;;12.40;8.15;;;;;;;13.33;100.00;98588.39;4082423;83;21110;-84
2021/08/30 21:11:02;;;;;;;13.43;8.15;;;;;;;13.34;100.00;98582.31;4097148;86;21153;-84
2021/08/30 21:17:05;;;;;;;13.68;8.93;;;;;;;13.39;100.00;98590.14;4092394;85;21069;-84
2021/08/30 21:23:06;;;;;;;11.80;8.78;;;;;;;13.39;100.00;98591.52;4100547;86;21049;-84
2021/08/30 21:29:07;;;;;;;13.48;7.92;;;;;;;13.41;100.00;98590.50;4093879;86;21148;-84
2021/08/30 21:35:09;;;;;;;11.88;7.40;;;;;;;13.29;100.00;98599.22;4098621;84;21052;-85
2021/08/30 21:41:11;;;;;;;14.15;8.48;;;;;;;13.30;100.00;98589.20;4097871;84;21093;-84
2021/08/30 21:47:13;;;;;;;14.25;8.83;;;;;;;13.34;100.00;98579.56;4011268;87;21079;-85
2021/08/30 21:53:19;;;;;;;14.63;8.78;;;;;;;13.24;100.00;98580.41;3994285;88;21027;-85
2021/08/30 21:59:17;;;;;;;14.20;9.15;;;;;;;13.20;100.00;98570.80;3990026;87;21158;-85
2021/08/30 22:05:37;;;;;;;18.10;9.48;;;;;;;13.18;100.00;98572.39;3927009;89;21097;-85
2021/08/30 22:11:38;;;;;;;18.50;11.35;;;;;;;13.22;100.00;98567.64;3997273;87;21022;-84
2021/08/30 22:17:43;;;;;;;19.05;10.72;;;;;;;13.22;100.00;98563.52;4078257;86;21050;-84
2021/08/30 22:23:47;;;;;;;19.32;10.38;;;;;;;13.15;100.00;98553.37;4073592;86;21079;-84
2021/08/30 22:29:49;;;;;;;26.27;13.05;;;;;;;13.23;100.00;98542.53;4064462;86;21047;-85
2021/08/30 22:35:51;;;;;;;27.93;14.38;;;;;;;13.32;100.00;98549.73;4061335;86;21521;-85
2021/08/30 22:41:52;;;;;;;19.40;10.25;;;;;;;13.19;100.00;98536.26;4067165;85;21061;-85
2021/08/30 22:47:54;;;;;;;18.23;10.23;;;;;;;13.20;100.00;98528.19;4067134;86;21055;-85
2021/08/30 22:53:55;;;;;;;22.17;10.55;;;;;;;13.31;100.00;98520.66;4068650;86;21039;-85
2021/08/30 22:59:56;;;;;;;15.03;10.28;;;;;;;13.39;100.00;98523.55;4065218;86;21051;-84
2021/08/30 23:05:58;;;;;;;13.58;10.85;;;;;;;13.42;100.00;98517.84;4072099;86;21062;-85
2021/08/30 23:12:01;;;;;;;15.68;8.85;;;;;;;13.25;100.00;98509.14;4025562;86;21528;-84
2021/08/30 23:18:03;;;;;;;11.05;7.70;;;;;;;13.16;100.00;98510.17;4105181;86;20994;-84
2021/08/30 23:24:05;;;;;;;9.55;7.58;;;;;;;13.16;100.00;98508.80;4073407;84;21105;-85
2021/08/30 23:30:08;;;;;;;10.45;7.55;;;;;;;13.19;100.00;98510.15;4095451;84;21050;-84
2021/08/30 23:36:10;;;;;;;8.40;6.28;;;;;;;13.17;100.00;98502.13;4097582;84;21553;-85
2021/08/30 23:42:11;;;;;;;8.13;6.62;;;;;;;13.18;100.00;98501.73;4092213;86;21054;-84
2021/08/30 23:48:12;;;;;;;13.13;7.20;;;;;;;13.09;100.00;98502.75;4105387;86;22064;-85
2021/08/30 23:54:14;;;;;;;13.25;8.30;;;;;;;13.20;100.00;98506.82;4094734;86;21363;-84
